Portada
METAR-TAF:

METAR-TAF

Aeropuertos :

Badajoz, España

Aeropuerto de Badajoz

latitud: 38-53N, longitud: 006-49W, altitud: 185 m

Observación

El informe se hizo hace 1 hora y 2 minutos, a las 13:00 UTC
Viento 5 kt del norte, variando entre oeste-noroeste y este-noreste
Temperatura 31°C
Humedad 40%
Presión 1018 hPa
Visibilidad 10 km o más
sin nubes por debajo de 1500 m y sin presencia de cumulonimbus.

METAR: LEBZ 221300Z 35005KT 300V060 CAVOK 31/16 Q1018

Hora: 16:02 (14:02 UTC)

Pronóstico

El informe se hizo hace 3 horas y 2 minutos, a las 11:00 UTC
Pronóstico válido del 22 a las 12 UTC al 23 a las 12 UTC
Viento 6 kt del oeste
Visibilidad 10 km o más
sin nubes por debajo de 1500 m y sin presencia de cumulonimbus.

TAF: LEBZ 221100Z 2212/2312 28006KT CAVOK TX37/2216Z TN17/2306Z

Observaciones y pronósticos meteorológicos de más de 4000 aeropuertos (mensajes METAR y TAF).

Los puntos amarillos y rojos representan las estaciones disponibles.

Ponga el ratón en el punto deseado para ver el nombre de la estación.

Haga clic para ver las observaciones y los pronósticos meteorológicos.

Para cambiar el mapa : haga clic en los botones verdes con una cruz de color negro para hacer un zoom, en el botón verde con un guión para alejar o en las flechas verdes para mapas adyacentes.


METAR-TAF: